Current | Forecast
Updated: 2:00 PM JST on April 25, 2018
Observed at Chitose AB, Japan
Temperature 50°F
Humidity 82%
Dew Point 45°F
Wind North at 10 mph
Pressure 29.74 in (Falling)
Conditions Light Rain Showers
Visibility 5.0 miles
UV 3 out of 16
Clouds (FEW) : 1500 ft
Mostly Cloudy (BKN) : 6000 ft
Yesterday's Maximum 46°F
Yesterday's Minimum 45°F approx.
Yesterday's Heating Degree Days 20 approx.
Sunrise4:35 AM JST
Sunset6:26 PM JST
Moon Rise1:02 PM JST
Moon Set2:15 AM JST
Moon PhaseMoon Phase
Waxing Gibbous
Raw METARMETAR RJCC 250500Z 01009KT 8000 -SHRA FEW015 BKN060 10/07 Q1007


Monday
. High: 73° F.
Tuesday
. High: 73° F.
Wednesday
. High: 64° F.
Thursday
. High: 62° F.
Friday
. High: 64° F.
Saturday
. High: 60° F.
Sunday
. High: 50° F.
Monday
. High: 55° F.

Units: English | Metric

Find the Weather for any City, State or Zipcode, or Country:

U.S. State List | Severe Weather | Tropical Storms | Ski Conditions
United States | Canada | Central America | South America | Asia | Europe | Australia | Africa | Islands

Weather Underground

© Copyright 2018
The Weather Company, LLC